sensor_id;sensor_type;location;lat;lon;timestamp;P1;durP1;ratioP1;P2;durP2;ratioP2
17177;SDS011;8704;52.006;4.374;2023-06-22T00:01:22;22.73;;;18.33;;
17177;SDS011;8704;52.006;4.374;2023-06-22T00:03:52;22.85;;;17.95;;
17177;SDS011;8704;52.006;4.374;2023-06-22T00:06:20;22.38;;;17.55;;
17177;SDS011;8704;52.006;4.374;2023-06-22T00:08:48;25.52;;;20.35;;
17177;SDS011;8704;52.006;4.374;2023-06-22T00:11:16;24.20;;;19.40;;
17177;SDS011;8704;52.006;4.374;2023-06-22T00:13:44;25.63;;;18.25;;
17177;SDS011;8704;52.006;4.374;2023-06-22T00:16:13;23.83;;;19.73;;
17177;SDS011;8704;52.006;4.374;2023-06-22T00:18:41;26.33;;;18.05;;
17177;SDS011;8704;52.006;4.374;2023-06-22T00:21:14;22.73;;;17.63;;
17177;SDS011;8704;52.006;4.374;2023-06-22T00:23:42;21.92;;;18.75;;
17177;SDS011;8704;52.006;4.374;2023-06-22T00:26:10;25.98;;;19.77;;
17177;SDS011;8704;52.006;4.374;2023-06-22T00:28:38;26.08;;;18.67;;
17177;SDS011;8704;52.006;4.374;2023-06-22T00:31:06;23.35;;;18.50;;
17177;SDS011;8704;52.006;4.374;2023-06-22T00:33:34;25.30;;;19.27;;
17177;SDS011;8704;52.006;4.374;2023-06-22T00:36:02;23.48;;;18.65;;
17177;SDS011;8704;52.006;4.374;2023-06-22T00:38:32;22.45;;;17.95;;
17177;SDS011;8704;52.006;4.374;2023-06-22T00:41:00;25.27;;;19.95;;
17177;SDS011;8704;52.006;4.374;2023-06-22T00:43:28;24.08;;;18.77;;
17177;SDS011;8704;52.006;4.374;2023-06-22T00:45:56;24.10;;;19.85;;
17177;SDS011;8704;52.006;4.374;2023-06-22T00:48:24;27.02;;;21.52;;
17177;SDS011;8704;52.006;4.374;2023-06-22T00:50:53;23.05;;;19.50;;
17177;SDS011;8704;52.006;4.374;2023-06-22T00:53:22;24.73;;;20.52;;
17177;SDS011;8704;52.006;4.374;2023-06-22T00:55:51;25.58;;;21.33;;
17177;SDS011;8704;52.006;4.374;2023-06-22T00:58:19;27.45;;;21.67;;
17177;SDS011;8704;52.006;4.374;2023-06-22T01:00:48;26.13;;;21.83;;
17177;SDS011;8704;52.006;4.374;2023-06-22T01:03:16;26.58;;;22.73;;
17177;SDS011;8704;52.006;4.374;2023-06-22T01:05:47;29.13;;;24.58;;
17177;SDS011;8704;52.006;4.374;2023-06-22T01:08:21;27.08;;;22.42;;
17177;SDS011;8704;52.006;4.374;2023-06-22T01:10:57;28.27;;;22.38;;
17177;SDS011;8704;52.006;4.374;2023-06-22T01:13:32;28.08;;;22.02;;
17177;SDS011;8704;52.006;4.374;2023-06-22T01:16:05;30.88;;;23.58;;
17177;SDS011;8704;52.006;4.374;2023-06-22T01:18:36;32.60;;;25.40;;
17177;SDS011;8704;52.006;4.374;2023-06-22T01:21:07;30.88;;;24.60;;
17177;SDS011;8704;52.006;4.374;2023-06-22T01:23:42;29.38;;;23.15;;
17177;SDS011;8704;52.006;4.374;2023-06-22T01:26:20;26.38;;;21.77;;
17177;SDS011;8704;52.006;4.374;2023-06-22T01:28:57;30.45;;;23.77;;
17177;SDS011;8704;52.006;4.374;2023-06-22T01:31:27;30.13;;;24.42;;
17177;SDS011;8704;52.006;4.374;2023-06-22T01:33:57;34.97;;;26.58;;
17177;SDS011;8704;52.006;4.374;2023-06-22T01:36:27;30.20;;;23.00;;
17177;SDS011;8704;52.006;4.374;2023-06-22T01:38:57;32.60;;;25.40;;
17177;SDS011;8704;52.006;4.374;2023-06-22T01:41:26;33.88;;;26.90;;
17177;SDS011;8704;52.006;4.374;2023-06-22T01:43:57;32.72;;;24.05;;
17177;SDS011;8704;52.006;4.374;2023-06-22T01:46:26;28.92;;;24.48;;
17177;SDS011;8704;52.006;4.374;2023-06-22T01:48:54;29.50;;;23.80;;
17177;SDS011;8704;52.006;4.374;2023-06-22T01:51:23;30.60;;;25.25;;
17177;SDS011;8704;52.006;4.374;2023-06-22T01:53:51;32.70;;;25.52;;
17177;SDS011;8704;52.006;4.374;2023-06-22T01:56:19;30.90;;;25.42;;
17177;SDS011;8704;52.006;4.374;2023-06-22T01:58:49;36.40;;;27.10;;
17177;SDS011;8704;52.006;4.374;2023-06-22T02:01:35;33.50;;;27.02;;
17177;SDS011;8704;52.006;4.374;2023-06-22T02:04:09;33.25;;;26.70;;
17177;SDS011;8704;52.006;4.374;2023-06-22T02:06:42;33.03;;;26.77;;
17177;SDS011;8704;52.006;4.374;2023-06-22T02:09:15;31.17;;;25.47;;
17177;SDS011;8704;52.006;4.374;2023-06-22T02:11:44;33.42;;;26.58;;
17177;SDS011;8704;52.006;4.374;2023-06-22T02:14:14;33.08;;;27.85;;
17177;SDS011;8704;52.006;4.374;2023-06-22T02:16:46;32.75;;;27.27;;
17177;SDS011;8704;52.006;4.374;2023-06-22T02:19:14;33.45;;;25.25;;
17177;SDS011;8704;52.006;4.374;2023-06-22T02:21:44;32.83;;;25.70;;
17177;SDS011;8704;52.006;4.374;2023-06-22T02:24:13;32.08;;;24.48;;
17177;SDS011;8704;52.006;4.374;2023-06-22T02:26:41;32.67;;;26.80;;
17177;SDS011;8704;52.006;4.374;2023-06-22T02:29:11;34.83;;;26.85;;
17177;SDS011;8704;52.006;4.374;2023-06-22T02:31:40;35.67;;;28.13;;
17177;SDS011;8704;52.006;4.374;2023-06-22T02:34:09;37.45;;;29.23;;
17177;SDS011;8704;52.006;4.374;2023-06-22T02:36:44;34.63;;;27.45;;
17177;SDS011;8704;52.006;4.374;2023-06-22T02:39:18;39.83;;;30.75;;
17177;SDS011;8704;52.006;4.374;2023-06-22T02:41:48;38.40;;;29.97;;
17177;SDS011;8704;52.006;4.374;2023-06-22T02:44:16;42.50;;;33.78;;
17177;SDS011;8704;52.006;4.374;2023-06-22T02:46:44;38.90;;;29.85;;
17177;SDS011;8704;52.006;4.374;2023-06-22T02:49:14;40.80;;;31.85;;
17177;SDS011;8704;52.006;4.374;2023-06-22T02:51:44;37.92;;;29.85;;
17177;SDS011;8704;52.006;4.374;2023-06-22T02:54:13;40.72;;;31.95;;
17177;SDS011;8704;52.006;4.374;2023-06-22T02:56:42;40.70;;;32.65;;
17177;SDS011;8704;52.006;4.374;2023-06-22T02:59:11;40.40;;;29.85;;
17177;SDS011;8704;52.006;4.374;2023-06-22T03:01:39;39.28;;;29.98;;
17177;SDS011;8704;52.006;4.374;2023-06-22T03:04:07;37.97;;;31.50;;
17177;SDS011;8704;52.006;4.374;2023-06-22T03:06:36;41.33;;;33.40;;
17177;SDS011;8704;52.006;4.374;2023-06-22T03:09:07;44.97;;;33.83;;
17177;SDS011;8704;52.006;4.374;2023-06-22T03:11:35;38.08;;;30.20;;
17177;SDS011;8704;52.006;4.374;2023-06-22T03:14:03;37.45;;;30.00;;
17177;SDS011;8704;52.006;4.374;2023-06-22T03:16:31;39.65;;;31.05;;
17177;SDS011;8704;52.006;4.374;2023-06-22T03:18:59;42.17;;;34.05;;
17177;SDS011;8704;52.006;4.374;2023-06-22T03:21:27;43.58;;;34.28;;
17177;SDS011;8704;52.006;4.374;2023-06-22T03:23:57;47.40;;;37.08;;
17177;SDS011;8704;52.006;4.374;2023-06-22T03:26:26;44.65;;;34.80;;
17177;SDS011;8704;52.006;4.374;2023-06-22T03:28:56;48.78;;;37.67;;
17177;SDS011;8704;52.006;4.374;2023-06-22T03:31:24;48.30;;;36.55;;
17177;SDS011;8704;52.006;4.374;2023-06-22T03:33:52;48.15;;;38.22;;
17177;SDS011;8704;52.006;4.374;2023-06-22T03:36:20;41.92;;;34.13;;
17177;SDS011;8704;52.006;4.374;2023-06-22T03:38:49;46.70;;;35.58;;
17177;SDS011;8704;52.006;4.374;2023-06-22T03:41:19;47.65;;;38.33;;
17177;SDS011;8704;52.006;4.374;2023-06-22T03:43:47;42.25;;;33.03;;
17177;SDS011;8704;52.006;4.374;2023-06-22T03:46:15;41.17;;;33.72;;
17177;SDS011;8704;52.006;4.374;2023-06-22T03:48:43;46.13;;;36.05;;
17177;SDS011;8704;52.006;4.374;2023-06-22T03:51:11;48.08;;;37.22;;
17177;SDS011;8704;52.006;4.374;2023-06-22T03:53:39;42.13;;;34.50;;
17177;SDS011;8704;52.006;4.374;2023-06-22T03:56:07;49.67;;;37.80;;
17177;SDS011;8704;52.006;4.374;2023-06-22T03:58:37;45.55;;;35.80;;
17177;SDS011;8704;52.006;4.374;2023-06-22T04:01:09;42.58;;;32.95;;
17177;SDS011;8704;52.006;4.374;2023-06-22T04:03:38;46.38;;;35.90;;
17177;SDS011;8704;52.006;4.374;2023-06-22T04:06:06;46.38;;;35.25;;
17177;SDS011;8704;52.006;4.374;2023-06-22T04:08:34;43.05;;;33.70;;
17177;SDS011;8704;52.006;4.374;2023-06-22T04:11:02;44.75;;;34.80;;
17177;SDS011;8704;52.006;4.374;2023-06-22T04:13:31;48.30;;;36.70;;
17177;SDS011;8704;52.006;4.374;2023-06-22T04:16:00;55.53;;;42.33;;
17177;SDS011;8704;52.006;4.374;2023-06-22T04:18:28;52.10;;;39.28;;
17177;SDS011;8704;52.006;4.374;2023-06-22T04:20:56;52.13;;;39.60;;
17177;SDS011;8704;52.006;4.374;2023-06-22T04:23:24;52.40;;;40.05;;
17177;SDS011;8704;52.006;4.374;2023-06-22T04:25:52;51.67;;;38.75;;
17177;SDS011;8704;52.006;4.374;2023-06-22T04:28:22;54.65;;;40.58;;
17177;SDS011;8704;52.006;4.374;2023-06-22T04:30:53;54.95;;;41.40;;
17177;SDS011;8704;52.006;4.374;2023-06-22T04:33:26;53.90;;;38.78;;
17177;SDS011;8704;52.006;4.374;2023-06-22T04:35:55;58.17;;;42.38;;
17177;SDS011;8704;52.006;4.374;2023-06-22T04:38:24;52.42;;;39.30;;
17177;SDS011;8704;52.006;4.374;2023-06-22T04:40:52;50.25;;;39.08;;
17177;SDS011;8704;52.006;4.374;2023-06-22T04:43:20;52.55;;;38.60;;
17177;SDS011;8704;52.006;4.374;2023-06-22T04:45:48;50.78;;;38.20;;
17177;SDS011;8704;52.006;4.374;2023-06-22T04:48:19;48.85;;;39.92;;
17177;SDS011;8704;52.006;4.374;2023-06-22T04:50:48;49.83;;;37.63;;
17177;SDS011;8704;52.006;4.374;2023-06-22T04:53:16;55.13;;;39.45;;
17177;SDS011;8704;52.006;4.374;2023-06-22T04:55:44;56.83;;;41.30;;
17177;SDS011;8704;52.006;4.374;2023-06-22T04:58:15;55.40;;;41.05;;
17177;SDS011;8704;52.006;4.374;2023-06-22T05:00:46;56.70;;;43.60;;
17177;SDS011;8704;52.006;4.374;2023-06-22T05:03:17;51.90;;;39.25;;
17177;SDS011;8704;52.006;4.374;2023-06-22T05:05:46;52.40;;;40.08;;
17177;SDS011;8704;52.006;4.374;2023-06-22T05:08:15;47.88;;;37.53;;
17177;SDS011;8704;52.006;4.374;2023-06-22T05:10:44;48.53;;;35.60;;
17177;SDS011;8704;52.006;4.374;2023-06-22T05:13:29;49.40;;;38.30;;
17177;SDS011;8704;52.006;4.374;2023-06-22T05:15:57;52.03;;;39.85;;
17177;SDS011;8704;52.006;4.374;2023-06-22T05:18:29;47.20;;;38.95;;
17177;SDS011;8704;52.006;4.374;2023-06-22T05:20:57;48.28;;;37.00;;
17177;SDS011;8704;52.006;4.374;2023-06-22T05:23:27;50.47;;;37.75;;
17177;SDS011;8704;52.006;4.374;2023-06-22T05:25:55;50.55;;;38.95;;
17177;SDS011;8704;52.006;4.374;2023-06-22T05:28:24;43.75;;;35.83;;
17177;SDS011;8704;52.006;4.374;2023-06-22T05:30:52;46.70;;;35.47;;
17177;SDS011;8704;52.006;4.374;2023-06-22T05:33:20;47.53;;;36.13;;
17177;SDS011;8704;52.006;4.374;2023-06-22T05:35:48;49.17;;;36.47;;
17177;SDS011;8704;52.006;4.374;2023-06-22T05:38:16;46.92;;;36.05;;
17177;SDS011;8704;52.006;4.374;2023-06-22T05:40:46;41.78;;;32.83;;
17177;SDS011;8704;52.006;4.374;2023-06-22T05:43:15;48.17;;;34.60;;
17177;SDS011;8704;52.006;4.374;2023-06-22T05:45:43;43.08;;;34.05;;
17177;SDS011;8704;52.006;4.374;2023-06-22T05:48:11;43.28;;;33.55;;
17177;SDS011;8704;52.006;4.374;2023-06-22T05:50:39;45.65;;;33.60;;
17177;SDS011;8704;52.006;4.374;2023-06-22T05:53:07;41.08;;;31.77;;
17177;SDS011;8704;52.006;4.374;2023-06-22T05:55:35;38.03;;;28.50;;
17177;SDS011;8704;52.006;4.374;2023-06-22T05:58:05;39.90;;;30.90;;
17177;SDS011;8704;52.006;4.374;2023-06-22T06:00:33;38.03;;;31.20;;
17177;SDS011;8704;52.006;4.374;2023-06-22T06:03:01;37.42;;;28.85;;
17177;SDS011;8704;52.006;4.374;2023-06-22T06:05:30;38.55;;;29.27;;
17177;SDS011;8704;52.006;4.374;2023-06-22T06:07:59;36.13;;;28.05;;
17177;SDS011;8704;52.006;4.374;2023-06-22T06:10:28;34.92;;;29.17;;
17177;SDS011;8704;52.006;4.374;2023-06-22T06:12:57;35.17;;;26.75;;
17177;SDS011;8704;52.006;4.374;2023-06-22T06:15:27;32.65;;;25.13;;
17177;SDS011;8704;52.006;4.374;2023-06-22T06:17:55;30.75;;;24.30;;
17177;SDS011;8704;52.006;4.374;2023-06-22T06:20:25;30.10;;;25.52;;
17177;SDS011;8704;52.006;4.374;2023-06-22T06:22:55;32.72;;;25.83;;
17177;SDS011;8704;52.006;4.374;2023-06-22T06:25:24;29.27;;;23.73;;
17177;SDS011;8704;52.006;4.374;2023-06-22T06:27:53;32.08;;;23.13;;
17177;SDS011;8704;52.006;4.374;2023-06-22T06:30:22;26.60;;;22.02;;
17177;SDS011;8704;52.006;4.374;2023-06-22T06:32:51;28.55;;;21.15;;
17177;SDS011;8704;52.006;4.374;2023-06-22T06:35:19;25.98;;;20.48;;
17177;SDS011;8704;52.006;4.374;2023-06-22T06:37:48;30.92;;;21.25;;
17177;SDS011;8704;52.006;4.374;2023-06-22T06:40:17;28.48;;;20.40;;
17177;SDS011;8704;52.006;4.374;2023-06-22T06:42:47;25.83;;;20.38;;
17177;SDS011;8704;52.006;4.374;2023-06-22T06:45:16;23.10;;;18.08;;
17177;SDS011;8704;52.006;4.374;2023-06-22T06:47:45;22.52;;;17.98;;
17177;SDS011;8704;52.006;4.374;2023-06-22T06:50:15;26.50;;;20.02;;
17177;SDS011;8704;52.006;4.374;2023-06-22T06:52:44;20.92;;;17.33;;
17177;SDS011;8704;52.006;4.374;2023-06-22T06:55:12;22.00;;;17.92;;
17177;SDS011;8704;52.006;4.374;2023-06-22T06:57:40;24.52;;;19.05;;
17177;SDS011;8704;52.006;4.374;2023-06-22T07:00:10;23.23;;;18.88;;
17177;SDS011;8704;52.006;4.374;2023-06-22T07:02:41;20.05;;;16.30;;
17177;SDS011;8704;52.006;4.374;2023-06-22T07:05:11;20.45;;;16.42;;
17177;SDS011;8704;52.006;4.374;2023-06-22T07:07:41;19.63;;;16.95;;
17177;SDS011;8704;52.006;4.374;2023-06-22T07:10:09;19.45;;;15.73;;
17177;SDS011;8704;52.006;4.374;2023-06-22T07:12:37;19.02;;;16.65;;
17177;SDS011;8704;52.006;4.374;2023-06-22T07:15:06;18.13;;;14.60;;
17177;SDS011;8704;52.006;4.374;2023-06-22T07:17:35;18.70;;;14.50;;
17177;SDS011;8704;52.006;4.374;2023-06-22T07:20:05;20.40;;;15.18;;
17177;SDS011;8704;52.006;4.374;2023-06-22T07:22:37;17.63;;;15.15;;
17177;SDS011;8704;52.006;4.374;2023-06-22T07:25:07;18.38;;;15.30;;
17177;SDS011;8704;52.006;4.374;2023-06-22T07:27:36;17.65;;;13.63;;
17177;SDS011;8704;52.006;4.374;2023-06-22T07:30:06;19.48;;;15.15;;
17177;SDS011;8704;52.006;4.374;2023-06-22T07:32:35;16.55;;;13.73;;
17177;SDS011;8704;52.006;4.374;2023-06-22T07:35:03;17.35;;;12.70;;
17177;SDS011;8704;52.006;4.374;2023-06-22T07:37:32;15.70;;;11.07;;
17177;SDS011;8704;52.006;4.374;2023-06-22T07:40:01;16.85;;;12.63;;
17177;SDS011;8704;52.006;4.374;2023-06-22T07:42:34;16.83;;;12.53;;
17177;SDS011;8704;52.006;4.374;2023-06-22T07:45:02;12.73;;;10.13;;
17177;SDS011;8704;52.006;4.374;2023-06-22T07:47:32;13.85;;;9.30;;
17177;SDS011;8704;52.006;4.374;2023-06-22T07:50:02;9.93;;;6.93;;
17177;SDS011;8704;52.006;4.374;2023-06-22T07:52:31;7.97;;;6.60;;
17177;SDS011;8704;52.006;4.374;2023-06-22T07:54:59;9.52;;;6.82;;
17177;SDS011;8704;52.006;4.374;2023-06-22T07:57:28;8.75;;;6.70;;
17177;SDS011;8704;52.006;4.374;2023-06-22T08:00:02;8.85;;;5.53;;
17177;SDS011;8704;52.006;4.374;2023-06-22T08:02:37;11.18;;;7.57;;
17177;SDS011;8704;52.006;4.374;2023-06-22T08:05:06;9.40;;;7.38;;
17177;SDS011;8704;52.006;4.374;2023-06-22T08:07:45;10.85;;;8.20;;
17177;SDS011;8704;52.006;4.374;2023-06-22T08:10:14;9.32;;;7.40;;
17177;SDS011;8704;52.006;4.374;2023-06-22T08:12:42;12.80;;;7.63;;
17177;SDS011;8704;52.006;4.374;2023-06-22T08:15:12;9.95;;;6.47;;
17177;SDS011;8704;52.006;4.374;2023-06-22T08:17:40;11.60;;;7.07;;
17177;SDS011;8704;52.006;4.374;2023-06-22T08:20:09;9.90;;;7.70;;
17177;SDS011;8704;52.006;4.374;2023-06-22T08:22:38;10.38;;;8.55;;
17177;SDS011;8704;52.006;4.374;2023-06-22T08:25:08;9.85;;;7.82;;
17177;SDS011;8704;52.006;4.374;2023-06-22T08:27:36;10.77;;;9.18;;
17177;SDS011;8704;52.006;4.374;2023-06-22T08:30:05;10.32;;;8.32;;
17177;SDS011;8704;52.006;4.374;2023-06-22T08:32:36;14.25;;;8.50;;
17177;SDS011;8704;52.006;4.374;2023-06-22T08:35:04;12.55;;;8.65;;
17177;SDS011;8704;52.006;4.374;2023-06-22T08:37:34;10.77;;;7.22;;
17177;SDS011;8704;52.006;4.374;2023-06-22T08:40:03;10.90;;;7.20;;
17177;SDS011;8704;52.006;4.374;2023-06-22T08:42:34;8.80;;;6.93;;
17177;SDS011;8704;52.006;4.374;2023-06-22T08:45:02;9.80;;;7.97;;
17177;SDS011;8704;52.006;4.374;2023-06-22T08:47:30;10.35;;;7.43;;
17177;SDS011;8704;52.006;4.374;2023-06-22T08:50:00;12.20;;;8.00;;
17177;SDS011;8704;52.006;4.374;2023-06-22T08:52:29;12.98;;;8.00;;
17177;SDS011;8704;52.006;4.374;2023-06-22T08:54:57;13.27;;;7.20;;
17177;SDS011;8704;52.006;4.374;2023-06-22T08:57:25;10.45;;;6.53;;
17177;SDS011;8704;52.006;4.374;2023-06-22T08:59:53;9.00;;;6.65;;
17177;SDS011;8704;52.006;4.374;2023-06-22T09:02:25;7.87;;;5.20;;
17177;SDS011;8704;52.006;4.374;2023-06-22T09:04:56;8.03;;;5.00;;
17177;SDS011;8704;52.006;4.374;2023-06-22T09:07:26;7.60;;;5.50;;
17177;SDS011;8704;52.006;4.374;2023-06-22T09:09:55;5.75;;;4.57;;
17177;SDS011;8704;52.006;4.374;2023-06-22T09:12:23;6.45;;;4.45;;
17177;SDS011;8704;52.006;4.374;2023-06-22T09:14:53;7.45;;;4.60;;
17177;SDS011;8704;52.006;4.374;2023-06-22T09:17:21;6.13;;;3.65;;
17177;SDS011;8704;52.006;4.374;2023-06-22T09:19:49;4.68;;;2.80;;
17177;SDS011;8704;52.006;4.374;2023-06-22T09:22:17;4.30;;;2.83;;
17177;SDS011;8704;52.006;4.374;2023-06-22T09:24:46;4.90;;;2.88;;
17177;SDS011;8704;52.006;4.374;2023-06-22T09:27:14;5.60;;;3.50;;
17177;SDS011;8704;52.006;4.374;2023-06-22T09:29:42;4.10;;;2.72;;
17177;SDS011;8704;52.006;4.374;2023-06-22T09:32:10;5.78;;;3.20;;
17177;SDS011;8704;52.006;4.374;2023-06-22T09:34:38;5.85;;;3.78;;
17177;SDS011;8704;52.006;4.374;2023-06-22T09:37:07;6.70;;;3.60;;
17177;SDS011;8704;52.006;4.374;2023-06-22T09:39:35;8.25;;;5.50;;
17177;SDS011;8704;52.006;4.374;2023-06-22T09:42:05;8.15;;;5.97;;
17177;SDS011;8704;52.006;4.374;2023-06-22T09:44:33;7.05;;;5.28;;
17177;SDS011;8704;52.006;4.374;2023-06-22T09:47:02;8.20;;;6.18;;
17177;SDS011;8704;52.006;4.374;2023-06-22T09:49:30;8.57;;;5.95;;
17177;SDS011;8704;52.006;4.374;2023-06-22T09:52:12;8.80;;;6.90;;
17177;SDS011;8704;52.006;4.374;2023-06-22T09:54:40;11.45;;;9.20;;
17177;SDS011;8704;52.006;4.374;2023-06-22T09:57:10;10.15;;;7.53;;
17177;SDS011;8704;52.006;4.374;2023-06-22T09:59:38;13.57;;;7.75;;
17177;SDS011;8704;52.006;4.374;2023-06-22T10:02:07;9.43;;;6.40;;
17177;SDS011;8704;52.006;4.374;2023-06-22T10:04:35;8.23;;;6.20;;
17177;SDS011;8704;52.006;4.374;2023-06-22T10:07:04;7.70;;;5.70;;
17177;SDS011;8704;52.006;4.374;2023-06-22T10:09:32;11.52;;;6.63;;
17177;SDS011;8704;52.006;4.374;2023-06-22T10:12:00;10.80;;;6.47;;
17177;SDS011;8704;52.006;4.374;2023-06-22T10:14:30;11.68;;;7.68;;
17177;SDS011;8704;52.006;4.374;2023-06-22T10:16:58;8.57;;;6.85;;
17177;SDS011;8704;52.006;4.374;2023-06-22T10:19:26;10.60;;;8.85;;
17177;SDS011;8704;52.006;4.374;2023-06-22T10:21:54;8.60;;;7.65;;
17177;SDS011;8704;52.006;4.374;2023-06-22T10:24:22;8.52;;;7.03;;
17177;SDS011;8704;52.006;4.374;2023-06-22T10:26:50;10.25;;;7.38;;
17177;SDS011;8704;52.006;4.374;2023-06-22T10:29:18;7.82;;;6.30;;
17177;SDS011;8704;52.006;4.374;2023-06-22T10:31:47;8.35;;;6.05;;
17177;SDS011;8704;52.006;4.374;2023-06-22T10:34:15;6.20;;;5.47;;
17177;SDS011;8704;52.006;4.374;2023-06-22T10:36:43;7.30;;;5.80;;
17177;SDS011;8704;52.006;4.374;2023-06-22T10:39:14;8.87;;;5.50;;
17177;SDS011;8704;52.006;4.374;2023-06-22T10:41:42;7.30;;;6.18;;
17177;SDS011;8704;52.006;4.374;2023-06-22T10:44:10;9.35;;;7.13;;
17177;SDS011;8704;52.006;4.374;2023-06-22T10:46:39;9.32;;;7.68;;
17177;SDS011;8704;52.006;4.374;2023-06-22T10:49:09;11.88;;;8.90;;
17177;SDS011;8704;52.006;4.374;2023-06-22T10:51:37;11.45;;;9.68;;
17177;SDS011;8704;52.006;4.374;2023-06-22T10:54:05;13.32;;;9.30;;
17177;SDS011;8704;52.006;4.374;2023-06-22T10:56:33;11.73;;;8.25;;
17177;SDS011;8704;52.006;4.374;2023-06-22T10:59:01;10.90;;;8.45;;
17177;SDS011;8704;52.006;4.374;2023-06-22T11:01:29;9.90;;;7.32;;
17177;SDS011;8704;52.006;4.374;2023-06-22T11:04:02;9.57;;;7.85;;
17177;SDS011;8704;52.006;4.374;2023-06-22T11:06:32;12.02;;;8.70;;
17177;SDS011;8704;52.006;4.374;2023-06-22T11:09:00;11.90;;;8.80;;
17177;SDS011;8704;52.006;4.374;2023-06-22T11:11:49;10.13;;;8.50;;
17177;SDS011;8704;52.006;4.374;2023-06-22T11:14:20;11.05;;;8.13;;
17177;SDS011;8704;52.006;4.374;2023-06-22T11:16:48;13.15;;;10.82;;
17177;SDS011;8704;52.006;4.374;2023-06-22T11:19:16;14.85;;;10.57;;
17177;SDS011;8704;52.006;4.374;2023-06-22T11:21:46;11.15;;;9.10;;
17177;SDS011;8704;52.006;4.374;2023-06-22T11:24:14;14.32;;;10.75;;
17177;SDS011;8704;52.006;4.374;2023-06-22T11:26:43;11.23;;;9.50;;
17177;SDS011;8704;52.006;4.374;2023-06-22T11:29:11;14.00;;;9.90;;
17177;SDS011;8704;52.006;4.374;2023-06-22T11:31:53;10.82;;;9.70;;
17177;SDS011;8704;52.006;4.374;2023-06-22T11:34:21;10.07;;;8.38;;
17177;SDS011;8704;52.006;4.374;2023-06-22T11:36:50;10.75;;;8.80;;
17177;SDS011;8704;52.006;4.374;2023-06-22T11:39:18;12.15;;;9.60;;
17177;SDS011;8704;52.006;4.374;2023-06-22T11:41:59;11.85;;;9.60;;
17177;SDS011;8704;52.006;4.374;2023-06-22T11:44:27;9.65;;;8.52;;
17177;SDS011;8704;52.006;4.374;2023-06-22T11:46:55;14.18;;;9.10;;
17177;SDS011;8704;52.006;4.374;2023-06-22T11:49:23;11.48;;;10.27;;
17177;SDS011;8704;52.006;4.374;2023-06-22T11:51:52;12.30;;;9.90;;
17177;SDS011;8704;52.006;4.374;2023-06-22T11:54:20;11.73;;;9.88;;
17177;SDS011;8704;52.006;4.374;2023-06-22T11:56:49;13.25;;;11.00;;
17177;SDS011;8704;52.006;4.374;2023-06-22T11:59:17;12.95;;;10.63;;
17177;SDS011;8704;52.006;4.374;2023-06-22T12:01:45;14.73;;;11.85;;
17177;SDS011;8704;52.006;4.374;2023-06-22T12:04:14;16.48;;;13.60;;
17177;SDS011;8704;52.006;4.374;2023-06-22T12:06:42;16.30;;;13.13;;
17177;SDS011;8704;52.006;4.374;2023-06-22T12:09:11;15.27;;;12.60;;
17177;SDS011;8704;52.006;4.374;2023-06-22T12:11:40;16.35;;;12.40;;
17177;SDS011;8704;52.006;4.374;2023-06-22T12:14:08;13.90;;;10.65;;
17177;SDS011;8704;52.006;4.374;2023-06-22T12:16:36;15.48;;;11.90;;
17177;SDS011;8704;52.006;4.374;2023-06-22T12:19:04;14.52;;;11.63;;
17177;SDS011;8704;52.006;4.374;2023-06-22T12:21:32;15.43;;;12.43;;
17177;SDS011;8704;52.006;4.374;2023-06-22T12:24:00;16.08;;;13.50;;
17177;SDS011;8704;52.006;4.374;2023-06-22T12:26:30;16.33;;;12.98;;
17177;SDS011;8704;52.006;4.374;2023-06-22T12:28:58;17.15;;;14.18;;
17177;SDS011;8704;52.006;4.374;2023-06-22T12:31:26;14.27;;;12.75;;
17177;SDS011;8704;52.006;4.374;2023-06-22T12:33:54;13.35;;;11.95;;
17177;SDS011;8704;52.006;4.374;2023-06-22T12:36:22;15.25;;;12.48;;
17177;SDS011;8704;52.006;4.374;2023-06-22T12:38:50;15.85;;;11.70;;
17177;SDS011;8704;52.006;4.374;2023-06-22T12:41:21;13.07;;;11.35;;
17177;SDS011;8704;52.006;4.374;2023-06-22T12:43:51;13.63;;;11.18;;
17177;SDS011;8704;52.006;4.374;2023-06-22T12:46:19;16.02;;;11.57;;
17177;SDS011;8704;52.006;4.374;2023-06-22T12:48:46;13.77;;;12.05;;
17177;SDS011;8704;52.006;4.374;2023-06-22T12:51:20;13.52;;;10.35;;
17177;SDS011;8704;52.006;4.374;2023-06-22T12:53:49;15.25;;;13.35;;
17177;SDS011;8704;52.006;4.374;2023-06-22T12:56:17;19.27;;;14.18;;
17177;SDS011;8704;52.006;4.374;2023-06-22T12:58:45;15.73;;;14.05;;
17177;SDS011;8704;52.006;4.374;2023-06-22T13:01:14;16.92;;;14.85;;
17177;SDS011;8704;52.006;4.374;2023-06-22T13:03:44;17.45;;;13.77;;
17177;SDS011;8704;52.006;4.374;2023-06-22T13:06:12;16.63;;;14.68;;
17177;SDS011;8704;52.006;4.374;2023-06-22T13:08:40;17.92;;;15.32;;
17177;SDS011;8704;52.006;4.374;2023-06-22T13:11:29;18.85;;;15.48;;
17177;SDS011;8704;52.006;4.374;2023-06-22T13:13:57;18.55;;;15.15;;
17177;SDS011;8704;52.006;4.374;2023-06-22T13:16:27;16.25;;;14.43;;
17177;SDS011;8704;52.006;4.374;2023-06-22T13:18:55;17.85;;;14.70;;
17177;SDS011;8704;52.006;4.374;2023-06-22T13:21:22;18.00;;;14.70;;
17177;SDS011;8704;52.006;4.374;2023-06-22T13:23:51;16.85;;;14.80;;
17177;SDS011;8704;52.006;4.374;2023-06-22T13:26:20;15.75;;;13.10;;
17177;SDS011;8704;52.006;4.374;2023-06-22T13:28:49;17.17;;;15.32;;
17177;SDS011;8704;52.006;4.374;2023-06-22T13:31:17;18.25;;;15.20;;
17177;SDS011;8704;52.006;4.374;2023-06-22T13:33:47;19.45;;;14.57;;
17177;SDS011;8704;52.006;4.374;2023-06-22T13:36:15;16.85;;;15.05;;
17177;SDS011;8704;52.006;4.374;2023-06-22T13:38:44;17.55;;;15.07;;
17177;SDS011;8704;52.006;4.374;2023-06-22T13:41:12;17.92;;;16.02;;
17177;SDS011;8704;52.006;4.374;2023-06-22T13:43:40;19.92;;;15.52;;
17177;SDS011;8704;52.006;4.374;2023-06-22T13:46:08;18.33;;;15.38;;
17177;SDS011;8704;52.006;4.374;2023-06-22T13:48:36;16.48;;;14.70;;
17177;SDS011;8704;52.006;4.374;2023-06-22T13:51:06;19.02;;;15.25;;
17177;SDS011;8704;52.006;4.374;2023-06-22T13:53:34;17.55;;;13.65;;
17177;SDS011;8704;52.006;4.374;2023-06-22T13:56:02;17.50;;;15.70;;
17177;SDS011;8704;52.006;4.374;2023-06-22T13:58:30;16.20;;;12.45;;
17177;SDS011;8704;52.006;4.374;2023-06-22T14:00:58;15.57;;;13.80;;
17177;SDS011;8704;52.006;4.374;2023-06-22T14:03:26;16.45;;;13.48;;
17177;SDS011;8704;52.006;4.374;2023-06-22T14:05:54;15.10;;;13.57;;
17177;SDS011;8704;52.006;4.374;2023-06-22T14:08:25;16.38;;;12.32;;
17177;SDS011;8704;52.006;4.374;2023-06-22T14:10:56;15.43;;;13.85;;
17177;SDS011;8704;52.006;4.374;2023-06-22T14:13:24;16.48;;;13.68;;
17177;SDS011;8704;52.006;4.374;2023-06-22T14:15:52;16.25;;;14.45;;
17177;SDS011;8704;52.006;4.374;2023-06-22T14:18:20;16.73;;;15.13;;
17177;SDS011;8704;52.006;4.374;2023-06-22T14:20:49;16.33;;;13.88;;
17177;SDS011;8704;52.006;4.374;2023-06-22T14:23:17;17.33;;;14.23;;
17177;SDS011;8704;52.006;4.374;2023-06-22T14:25:47;17.17;;;13.73;;
17177;SDS011;8704;52.006;4.374;2023-06-22T14:28:15;15.95;;;13.93;;
17177;SDS011;8704;52.006;4.374;2023-06-22T14:30:43;17.83;;;14.93;;
17177;SDS011;8704;52.006;4.374;2023-06-22T14:33:12;16.45;;;14.77;;
17177;SDS011;8704;52.006;4.374;2023-06-22T14:35:40;16.13;;;13.85;;
17177;SDS011;8704;52.006;4.374;2023-06-22T14:38:08;15.38;;;13.77;;
17177;SDS011;8704;52.006;4.374;2023-06-22T14:40:36;15.95;;;13.75;;
17177;SDS011;8704;52.006;4.374;2023-06-22T14:43:25;17.00;;;14.35;;
17177;SDS011;8704;52.006;4.374;2023-06-22T14:45:53;16.33;;;14.57;;
17177;SDS011;8704;52.006;4.374;2023-06-22T14:48:21;18.40;;;15.82;;
17177;SDS011;8704;52.006;4.374;2023-06-22T14:50:49;17.85;;;15.18;;
17177;SDS011;8704;52.006;4.374;2023-06-22T14:53:17;18.00;;;15.38;;